Time;durP1;ratioP1;P1;durP2;ratioP2;P2;SDS_P1;SDS_P2;PMS_P1;PMS_P2;Temp;Humidity;BMP_temperature;BMP_pressure;BME280_temperature;BME280_humidity;BME280_pressure;Samples;Min_cycle;Max_cycle;Signal;HPM_P1;HPM_P2
2022/08/21 00:01:42;;;;;;;4.38;2.30;;;;;;;24.93;43.50;101628.38;5008457;28;20034;-67
2022/08/21 00:04:08;;;;;;;3.63;2.08;;;;;;;25.07;43.46;101645.69;5008886;28;20026;-66
2022/08/21 00:06:34;;;;;;;3.03;1.90;;;;;;;25.06;43.55;101649.44;5008404;28;20098;-67
2022/08/21 00:09:01;;;;;;;3.10;1.88;;;;;;;25.06;43.57;101643.13;5008262;28;20022;-65
2022/08/21 00:11:27;;;;;;;4.53;2.38;;;;;;;24.88;43.55;101616.34;5008849;28;20029;-67
2022/08/21 00:13:52;;;;;;;3.40;2.05;;;;;;;24.97;43.51;101633.41;5025914;28;20379;-67
2022/08/21 00:16:18;;;;;;;3.17;1.90;;;;;;;25.04;43.42;101645.22;5025829;28;20029;-66
2022/08/21 00:18:43;;;;;;;4.60;2.45;;;;;;;25.03;43.32;101647.09;5008322;28;20032;-66
2022/08/21 00:21:08;;;;;;;3.20;2.35;;;;;;;25.03;43.46;101646.25;5026021;28;20089;-67
2022/08/21 00:23:34;;;;;;;3.13;1.70;;;;;;;25.02;43.42;101645.41;5008231;28;20037;-67
2022/08/21 00:26:00;;;;;;;3.88;2.00;;;;;;;24.83;43.27;101613.38;5025824;28;20081;-67
2022/08/21 00:28:25;;;;;;;6.20;2.10;;;;;;;24.98;43.44;101635.97;5025798;28;20033;-67
2022/08/21 00:30:50;;;;;;;3.33;1.75;;;;;;;24.80;43.46;101617.31;5009705;28;20559;-67
2022/08/21 00:33:16;;;;;;;2.83;1.73;;;;;;;24.98;43.34;101640.53;5045946;28;20025;-66
2022/08/21 00:35:42;;;;;;;4.70;2.75;;;;;;;24.96;43.23;101634.44;5027929;28;20053;-67
2022/08/21 00:38:08;;;;;;;4.05;1.65;;;;;;;24.77;43.21;101615.00;5027461;28;20033;-67
2022/08/21 00:40:55;;;;;;;4.90;2.10;;;;;;;24.75;43.29;101603.44;5027863;28;20040;-67
2022/08/21 00:43:24;;;;;;;3.15;1.88;;;;;;;24.96;43.16;101645.34;5010839;28;20107;-67
2022/08/21 00:45:50;;;;;;;;;;;;;;;24.94;43.24;101642.81;5027555;28;20025;-66
2022/08/21 00:48:15;;;;;;;3.53;1.88;;;;;;;24.93;43.11;101641.97;5027221;28;19960;-66
2022/08/21 00:50:46;;;;;;;3.35;1.83;;;;;;;24.92;43.05;101648.44;5027774;28;20029;-67
2022/08/21 00:53:13;;;;;;;4.07;1.92;;;;;;;24.90;43.23;101645.06;5027308;28;20108;-67
2022/08/21 00:55:38;;;;;;;3.95;2.03;;;;;;;24.89;43.33;101640.66;5027734;28;20027;-68
2022/08/21 00:58:06;;;;;;;2.83;1.80;;;;;;;24.73;43.19;101610.97;5027214;28;20089;-67
2022/08/21 01:00:34;;;;;;;3.92;1.90;;;;;;;24.89;43.19;101634.34;5027323;28;20026;-67
2022/08/21 01:03:00;;;;;;;2.72;1.60;;;;;;;24.88;43.08;101628.06;5016601;28;20033;-67
2022/08/21 01:05:26;;;;;;;2.70;1.70;;;;;;;24.88;43.13;101630.78;5023546;28;20021;-67
2022/08/21 01:07:52;;;;;;;2.78;1.83;;;;;;;24.68;43.18;101588.94;5026837;28;20493;-67
2022/08/21 01:10:18;;;;;;;3.33;2.00;;;;;;;24.85;43.09;101620.31;5028497;28;20044;-67
2022/08/21 01:12:43;;;;;;;3.22;2.00;;;;;;;24.84;43.05;101625.94;5046807;28;20026;-67
2022/08/21 01:15:09;;;;;;;3.70;1.73;;;;;;;24.86;43.08;101624.72;5034145;28;20021;-67
2022/08/21 01:17:35;;;;;;;2.63;1.52;;;;;;;24.68;42.88;101602.53;5050688;28;20025;-68
2022/08/21 01:20:05;;;;;;;2.60;1.60;;;;;;;24.84;43.05;101629.50;5021079;28;20085;-68
2022/08/21 01:22:31;;;;;;;3.55;2.00;;;;;;;24.85;43.02;101633.06;5014256;28;20030;-68
2022/08/21 01:24:56;;;;;;;3.15;2.08;;;;;;;24.81;42.51;101629.06;5031718;28;20037;-67
2022/08/21 01:27:21;;;;;;;2.20;1.40;;;;;;;24.82;42.90;101630.72;5014039;28;20060;-67
2022/08/21 01:29:55;;;;;;;3.30;1.85;;;;;;;24.84;43.01;101639.53;5031680;28;20045;-67
2022/08/21 01:32:20;;;;;;;2.70;1.58;;;;;;;24.82;42.97;101639.72;5013895;28;20133;-67
2022/08/21 01:34:48;;;;;;;2.45;1.70;;;;;;;24.64;43.06;101612.94;5013930;28;20467;-67
2022/08/21 01:37:14;;;;;;;2.75;1.73;;;;;;;24.80;42.87;101639.06;5027894;28;20029;-68
2022/08/21 01:39:41;;;;;;;2.55;1.50;;;;;;;24.79;42.83;101645.53;5051528;28;20386;-67
2022/08/21 01:42:06;;;;;;;3.70;1.90;;;;;;;24.61;43.03;101612.47;5033228;28;20414;-68
2022/08/21 01:44:32;;;;;;;2.35;1.70;;;;;;;24.59;42.96;101609.09;5051495;28;20052;-69
2022/08/21 01:47:00;;;;;;;3.60;2.00;;;;;;;24.78;42.93;101637.59;5033050;28;20048;-68
2022/08/21 01:49:25;;;;;;;1.98;1.30;;;;;;;24.77;42.84;101641.34;5033727;28;20025;-68
2022/08/21 01:51:51;;;;;;;3.00;1.50;;;;;;;24.78;42.92;101637.59;5051396;28;20102;-68
2022/08/21 01:54:16;;;;;;;3.45;1.90;;;;;;;24.77;42.71;101638.63;5016995;28;20037;-68
2022/08/21 01:56:46;;;;;;;2.78;1.70;;;;;;;24.58;42.68;101599.25;5051228;28;20033;-68
2022/08/21 01:59:12;;;;;;;3.08;1.70;;;;;;;24.75;42.84;101627.06;5051138;28;20021;-68
2022/08/21 02:01:39;;;;;;;2.75;1.63;;;;;;;24.74;42.65;101620.81;5051040;28;20117;-68
2022/08/21 02:04:05;;;;;;;2.63;1.50;;;;;;;24.57;42.88;101586.69;5033500;28;20461;-68
2022/08/21 02:06:31;;;;;;;2.25;1.55;;;;;;;24.74;42.73;101619.97;5033468;28;20040;-68
2022/08/21 02:08:56;;;;;;;2.38;1.70;;;;;;;24.57;42.72;101594.84;5016651;28;20025;-68
2022/08/21 02:11:21;;;;;;;2.42;1.40;;;;;;;24.72;42.55;101616.56;5019362;28;20033;-68
2022/08/21 02:13:46;;;;;;;3.80;1.92;;;;;;;24.71;42.54;101613.00;5013405;28;20045;-68
2022/08/21 02:16:12;;;;;;;2.05;1.52;;;;;;;24.69;42.44;101604.22;5013226;28;20065;-67
2022/08/21 02:18:38;;;;;;;2.97;1.80;;;;;;;24.71;42.56;101606.75;5031146;28;20034;-68
2022/08/21 02:21:04;;;;;;;3.03;1.63;;;;;;;24.52;42.42;101583.72;4997395;28;20029;-67
2022/08/21 02:23:29;;;;;;;2.40;1.60;;;;;;;24.69;42.52;101606.94;5013322;28;20028;-68
2022/08/21 02:26:00;;;;;;;2.10;1.58;;;;;;;24.50;42.61;101581.16;5009362;28;20038;-67
2022/08/21 02:28:26;;;;;;;3.20;1.70;;;;;;;24.68;42.50;101614.25;5010432;28;20022;-67
2022/08/21 02:30:52;;;;;;;2.78;2.05;;;;;;;24.67;42.46;101615.25;5010059;28;20097;-68
2022/08/21 02:33:18;;;;;;;3.30;1.70;;;;;;;24.65;42.62;101608.34;5010582;28;20097;-68
2022/08/21 02:35:45;;;;;;;2.15;1.40;;;;;;;24.66;42.51;101616.31;5010467;28;20030;-68
2022/08/21 02:38:18;;;;;;;3.50;1.73;;;;;;;24.66;42.42;101615.47;5027674;28;20030;-68
2022/08/21 02:40:46;;;;;;;1.95;1.63;;;;;;;24.65;42.44;101611.91;5028122;28;20026;-68
2022/08/21 02:43:11;;;;;;;3.45;1.52;;;;;;;24.48;42.37;101582.41;5010088;28;20037;-68
2022/08/21 02:45:38;;;;;;;3.03;1.20;;;;;;;24.64;42.29;101610.22;5027231;28;20026;-67
2022/08/21 02:48:06;;;;;;;1.75;1.58;;;;;;;24.63;42.53;101603.06;5010001;28;20569;-67
2022/08/21 02:50:36;;;;;;;3.27;1.50;;;;;;;24.62;42.33;101598.69;5010191;28;20034;-67
2022/08/21 02:53:02;;;;;;;2.45;1.67;;;;;;;24.62;42.29;101597.84;5027393;28;20294;-67
2022/08/21 02:55:30;;;;;;;2.22;1.42;;;;;;;24.60;42.40;101600.75;5010037;28;20040;-67
2022/08/21 02:57:57;;;;;;;2.90;1.83;;;;;;;24.42;42.51;101559.53;4993227;28;20033;-68
2022/08/21 03:00:24;;;;;;;1.95;1.48;;;;;;;24.60;42.31;101592.59;5009842;28;20022;-67
2022/08/21 03:02:50;;;;;;;2.22;1.35;;;;;;;24.56;41.90;101585.88;5009714;28;20108;-67
2022/08/21 03:05:16;;;;;;;1.52;1.13;;;;;;;24.58;42.33;101593.81;5009763;28;20619;-67
2022/08/21 03:07:44;;;;;;;2.50;1.20;;;;;;;24.39;42.35;101558.03;5009541;28;20036;-67
2022/08/21 03:10:09;;;;;;;4.38;2.15;;;;;;;24.56;42.27;101585.88;5013820;28;20013;-67
2022/08/21 03:12:35;;;;;;;2.15;1.45;;;;;;;24.56;42.25;101594.03;5028969;28;20049;-68
2022/08/21 03:15:03;;;;;;;2.70;1.75;;;;;;;24.36;42.15;101558.38;5046956;28;20029;-68
2022/08/21 03:17:29;;;;;;;2.38;1.30;;;;;;;24.54;42.25;101590.63;5012025;28;20029;-68
2022/08/21 03:19:54;;;;;;;1.67;1.20;;;;;;;24.54;42.29;101589.78;5029333;28;20029;-68
2022/08/21 03:22:19;;;;;;;1.95;1.50;;;;;;;24.53;42.26;101586.22;5046856;28;20052;-67
2022/08/21 03:24:45;;;;;;;1.70;1.10;;;;;;;24.53;42.32;101588.94;5047096;28;20045;-67
2022/08/21 03:27:12;;;;;;;2.38;1.20;;;;;;;24.48;42.23;101579.69;5029017;28;20030;-68
2022/08/21 03:29:38;;;;;;;1.83;1.30;;;;;;;24.52;42.27;101590.00;5029499;28;20033;-68
2022/08/21 03:32:03;;;;;;;2.20;1.48;;;;;;;24.50;42.18;101588.47;5028643;28;20736;-68
2022/08/21 03:34:28;;;;;;;4.88;1.67;;;;;;;24.49;42.18;101581.38;5012661;28;20096;-67
2022/08/21 03:36:54;;;;;;;2.42;1.65;;;;;;;24.46;42.35;101579.84;5011896;28;20025;-67
2022/08/21 03:39:19;;;;;;;2.55;1.80;;;;;;;24.44;42.27;101582.78;5046600;28;20068;-67
2022/08/21 03:41:45;;;;;;;2.05;1.30;;;;;;;24.29;42.10;101559.31;5046273;28;20037;-67
2022/08/21 03:44:11;;;;;;;2.03;1.15;;;;;;;24.40;42.32;101576.03;5046448;28;20025;-67
2022/08/21 03:46:36;;;;;;;2.28;1.17;;;;;;;24.45;42.21;101586.34;5045877;28;20108;-67
2022/08/21 03:49:02;;;;;;;2.47;1.52;;;;;;;24.44;42.19;101590.09;5028595;28;20040;-67
2022/08/21 03:51:27;;;;;;;2.42;1.73;;;;;;;24.44;42.17;101590.94;5046293;28;20079;-67
2022/08/21 03:53:54;;;;;;;2.33;1.48;;;;;;;24.40;42.19;101583.34;5046189;28;20371;-67
2022/08/21 03:56:19;;;;;;;1.98;1.25;;;;;;;24.43;41.87;101586.53;5028881;28;20029;-67
2022/08/21 03:58:44;;;;;;;2.40;1.30;;;;;;;24.41;42.12;101588.59;5045940;28;20120;-67
2022/08/21 04:01:10;;;;;;;1.80;1.23;;;;;;;24.42;42.04;101579.41;5045710;28;20021;-67
2022/08/21 04:03:36;;;;;;;1.50;0.90;;;;;;;24.42;42.12;101584.00;5012109;28;20021;-67
2022/08/21 04:06:02;;;;;;;2.08;1.75;;;;;;;24.40;42.25;101584.19;5045827;28;20021;-67
2022/08/21 04:08:27;;;;;;;2.20;1.25;;;;;;;24.23;42.11;101558.22;5028130;28;20029;-67
2022/08/21 04:10:55;;;;;;;2.72;1.50;;;;;;;24.20;42.08;101556.69;5035787;28;20022;-67
2022/08/21 04:13:21;;;;;;;1.80;1.35;;;;;;;24.40;42.07;101595.06;4991922;28;20079;-67
2022/08/21 04:15:47;;;;;;;2.00;1.40;;;;;;;24.39;42.01;101585.22;5008045;28;20443;-68
2022/08/21 04:18:12;;;;;;;2.03;1.17;;;;;;;24.40;42.05;101588.78;5008460;28;20145;-66
2022/08/21 04:20:39;;;;;;;2.20;1.35;;;;;;;24.23;42.05;101563.66;5008654;28;20128;-72
2022/08/21 04:23:04;;;;;;;1.52;0.95;;;;;;;24.45;42.85;101575.47;5008395;28;20033;-46
2022/08/21 04:25:29;;;;;;;1.48;0.68;;;;;;;24.46;42.74;101571.69;5025792;28;20439;-43
2022/08/21 04:27:55;;;;;;;1.20;0.60;;;;;;;24.44;42.52;101568.34;4991515;28;20112;-43
2022/08/21 04:30:21;;;;;;;2.13;0.50;;;;;;;24.45;42.50;101572.75;5008163;28;20033;-43
2022/08/21 04:32:48;;;;;;;0.52;0.50;;;;;;;24.44;42.69;101568.34;5008258;28;20368;-44
2022/08/21 04:35:16;;;;;;;1.15;0.50;;;;;;;24.43;42.45;101567.50;5025697;28;20018;-45
2022/08/21 04:37:42;;;;;;;0.40;0.38;;;;;;;24.43;42.55;101572.94;4991721;28;20029;-45
2022/08/21 04:40:09;;;;;;;0.50;0.40;;;;;;;24.42;42.55;101567.69;4991526;28;20048;-43
2022/08/21 04:42:44;;;;;;;0.68;0.50;;;;;;;24.42;42.63;101573.97;4991392;28;20021;-43
2022/08/21 04:45:15;;;;;;;0.52;0.40;;;;;;;24.26;42.64;101544.25;5007915;28;20018;-42
2022/08/21 04:47:40;;;;;;;0.50;0.32;;;;;;;24.41;42.68;101571.44;5024352;28;20018;-42
2022/08/21 04:50:06;;;;;;;0.52;0.52;;;;;;;24.41;42.51;101571.44;5007919;28;20624;-42
2022/08/21 04:52:32;;;;;;;0.25;0.20;;;;;;;24.41;42.61;101571.44;4991560;28;20022;-45
2022/08/21 04:54:57;;;;;;;0.68;0.40;;;;;;;24.41;42.45;101572.28;5025280;28;20049;-44
2022/08/21 04:57:22;;;;;;;0.73;0.47;;;;;;;24.26;42.62;101555.13;5025021;28;20036;-45
2022/08/21 04:59:49;;;;;;;1.23;0.30;;;;;;;24.24;42.65;101549.03;5007469;28;20049;-48
2022/08/21 05:02:15;;;;;;;0.43;0.30;;;;;;;24.40;42.74;101580.63;5007278;28;20085;-45
2022/08/21 05:04:49;;;;;;;0.47;0.40;;;;;;;24.42;42.75;101581.28;5007392;28;20038;-42
2022/08/21 05:07:22;;;;;;;0.50;0.40;;;;;;;24.41;42.69;101585.03;4995824;28;20045;-47
2022/08/21 05:09:48;;;;;;;1.60;0.50;;;;;;;24.40;42.78;101586.06;5026092;28;20046;-47
2022/08/21 05:12:13;;;;;;;0.43;0.32;;;;;;;24.38;42.91;101585.41;5044656;28;20040;-48
2022/08/21 05:14:38;;;;;;;0.57;0.35;;;;;;;24.26;42.63;101570.59;5027168;28;20047;-45
2022/08/21 05:17:04;;;;;;;0.80;0.47;;;;;;;24.38;42.93;101597.13;5044427;28;20091;-47
2022/08/21 05:19:29;;;;;;;1.85;0.50;;;;;;;24.39;42.75;101593.38;5010858;28;20040;-43
2022/08/21 05:21:55;;;;;;;1.10;0.47;;;;;;;24.22;42.95;101558.41;5026841;28;20029;-46
2022/08/21 05:24:20;;;;;;;0.85;0.40;;;;;;;24.25;42.85;101575.16;5027371;28;20028;-45
2022/08/21 05:26:46;;;;;;;0.63;0.40;;;;;;;24.30;43.11;101582.75;5044578;28;20033;-42
2022/08/21 05:29:11;;;;;;;0.82;0.60;;;;;;;24.38;43.19;101594.41;5044484;28;20022;-42
2022/08/21 05:31:37;;;;;;;0.77;0.50;;;;;;;24.36;42.86;101595.59;5026574;28;20029;-42
2022/08/21 05:34:03;;;;;;;0.90;0.47;;;;;;;24.38;43.20;101594.41;5027067;28;20029;-42
2022/08/21 05:36:29;;;;;;;1.65;0.50;;;;;;;24.38;43.18;101601.69;5026767;28;20032;-47
2022/08/21 05:38:54;;;;;;;0.60;0.30;;;;;;;24.38;43.27;101602.56;5026758;28;20710;-48
2022/08/21 05:41:20;;;;;;;0.80;0.50;;;;;;;24.22;43.17;101575.56;5026840;28;20033;-45
2022/08/21 05:43:45;;;;;;;0.30;0.30;;;;;;;24.23;43.39;101568.25;5026393;28;20044;-46
2022/08/21 05:46:11;;;;;;;0.63;0.40;;;;;;;24.21;43.14;101568.41;5026284;28;20394;-43
2022/08/21 05:48:36;;;;;;;0.90;0.47;;;;;;;24.37;43.16;101586.41;5044226;28;20025;-43
2022/08/21 05:51:10;;;;;;;0.95;0.40;;;;;;;24.37;43.02;101584.56;5044727;28;20047;-44
2022/08/21 05:53:36;;;;;;;0.38;0.30;;;;;;;24.36;43.16;101591.00;5044407;28;20049;-43
2022/08/21 05:56:03;;;;;;;0.35;0.30;;;;;;;24.36;43.13;101580.13;5044558;28;20101;-44
2022/08/21 05:58:29;;;;;;;1.48;0.60;;;;;;;24.35;43.25;101581.16;5026715;28;20518;-44
2022/08/21 06:00:55;;;;;;;1.20;0.60;;;;;;;24.39;43.19;101584.38;5030043;28;20037;-44
2022/08/21 06:03:26;;;;;;;0.40;0.30;;;;;;;24.39;43.32;101577.06;5030486;28;20069;-42
2022/08/21 06:05:52;;;;;;;1.77;0.50;;;;;;;24.40;43.41;101584.19;5030117;28;20047;-43
2022/08/21 06:08:18;;;;;;;1.08;0.50;;;;;;;24.43;43.15;101585.69;5030080;28;20052;-43
2022/08/21 06:10:45;;;;;;;0.70;0.60;;;;;;;24.43;43.23;101582.97;5010580;28;20125;-43
2022/08/21 06:13:11;;;;;;;0.82;0.68;;;;;;;24.44;43.24;101590.09;5009931;28;20030;-43
2022/08/21 06:15:36;;;;;;;0.60;0.40;;;;;;;24.46;43.22;101587.19;5010747;28;20029;-43
2022/08/21 06:18:02;;;;;;;1.05;0.50;;;;;;;24.47;43.04;101583.41;5027769;28;20038;-44
2022/08/21 06:20:28;;;;;;;0.75;0.60;;;;;;;24.33;43.27;101560.63;4994402;28;20029;-43
2022/08/21 06:22:53;;;;;;;0.82;0.50;;;;;;;24.47;43.14;101575.25;5010286;28;20025;-44
2022/08/21 06:25:19;;;;;;;0.73;0.40;;;;;;;24.40;43.06;101564.31;5010275;28;20089;-44
2022/08/21 06:27:44;;;;;;;1.02;0.50;;;;;;;24.50;43.27;101580.31;5026638;28;20025;-44
2022/08/21 06:30:10;;;;;;;0.70;0.40;;;;;;;24.35;43.34;101559.41;5027938;28;20036;-44
2022/08/21 06:32:36;;;;;;;0.80;0.43;;;;;;;24.50;43.12;101583.88;5027982;28;20036;-43
2022/08/21 06:35:01;;;;;;;1.27;0.43;;;;;;;24.52;43.11;101587.28;5027966;28;20022;-42
2022/08/21 06:37:27;;;;;;;1.40;0.60;;;;;;;24.49;43.09;101581.38;5010083;28;20029;-44
2022/08/21 06:39:52;;;;;;;0.43;0.40;;;;;;;24.51;43.08;101584.72;5026075;28;20034;-45
2022/08/21 06:42:17;;;;;;;1.50;0.82;;;;;;;24.20;43.18;101536.84;5008776;28;20057;-41
2022/08/21 06:44:43;;;;;;;1.17;0.68;;;;;;;24.49;43.39;101593.09;5024598;28;20036;-46
2022/08/21 06:47:08;;;;;;;0.70;0.50;;;;;;;24.50;43.38;101583.03;5007843;28;20357;-44
2022/08/21 06:49:34;;;;;;;1.33;0.50;;;;;;;24.51;43.27;101584.72;5008178;28;20026;-44
2022/08/21 06:52:00;;;;;;;1.08;0.60;;;;;;;24.50;43.54;101589.31;5008206;28;20026;-44
2022/08/21 06:54:25;;;;;;;1.00;0.80;;;;;;;24.48;43.39;101585.13;5025345;28;20038;-47
2022/08/21 06:56:50;;;;;;;1.80;0.90;;;;;;;24.29;43.49;101564.75;5025671;28;20073;-47
2022/08/21 06:59:16;;;;;;;1.98;1.17;;;;;;;24.34;43.66;101579.50;5007573;28;20032;-45
2022/08/21 07:01:41;;;;;;;3.42;1.20;;;;;;;24.27;43.77;101578.53;5025151;28;20029;-46
2022/08/21 07:04:07;;;;;;;2.38;0.88;;;;;;;24.19;43.71;101582.19;5025337;28;20538;-43
2022/08/21 07:06:32;;;;;;;2.33;1.10;;;;;;;24.14;44.09;101579.19;4991771;28;20041;-43
2022/08/21 07:08:57;;;;;;;2.90;1.00;;;;;;;24.08;44.27;101587.25;5007539;28;20040;-43
2022/08/21 07:11:24;;;;;;;2.97;1.77;;;;;;;24.02;44.48;101582.56;5039336;28;20462;-45
2022/08/21 07:13:52;;;;;;;2.30;1.00;;;;;;;23.97;44.44;101579.56;5044432;28;20033;-43
2022/08/21 07:16:17;;;;;;;1.90;1.00;;;;;;;23.89;44.75;101578.63;5027537;28;20029;-44
2022/08/21 07:18:42;;;;;;;2.10;1.10;;;;;;;23.87;44.84;101571.69;5012734;28;20298;-46
2022/08/21 07:21:08;;;;;;;2.28;0.80;;;;;;;23.84;45.06;101572.06;5024707;28;20029;-45
2022/08/21 07:23:41;;;;;;;2.17;1.27;;;;;;;23.81;45.02;101570.56;5000346;28;20064;-51
2022/08/21 07:26:06;;;;;;;2.47;1.02;;;;;;;23.64;45.42;101547.28;5000716;28;20030;-46
2022/08/21 07:28:31;;;;;;;2.13;0.90;;;;;;;23.76;45.51;101574.88;5016939;28;21073;-43
2022/08/21 07:30:58;;;;;;;2.75;0.95;;;;;;;23.73;45.66;101573.34;5005017;28;20581;-46
2022/08/21 07:33:25;;;;;;;2.13;0.90;;;;;;;23.70;45.66;101571.00;5020169;28;20061;-44
2022/08/21 07:35:51;;;;;;;3.33;1.10;;;;;;;23.64;45.69;101569.00;4987424;28;20494;-51
2022/08/21 07:38:16;;;;;;;2.20;1.02;;;;;;;23.63;45.74;101581.72;5002346;28;20040;-46
2022/08/21 07:40:41;;;;;;;3.35;1.08;;;;;;;23.45;45.74;101543.22;5022740;28;20041;-40
2022/08/21 07:43:07;;;;;;;2.80;0.90;;;;;;;23.59;45.74;101576.84;5002931;28;20033;-41
2022/08/21 07:45:32;;;;;;;3.00;1.00;;;;;;;23.50;45.92;101548.09;4988807;28;20037;-41
2022/08/21 07:47:58;;;;;;;3.38;1.17;;;;;;;23.43;46.04;101537.97;5023142;28;20025;-42
2022/08/21 07:50:24;;;;;;;2.58;1.00;;;;;;;23.58;45.93;101567.03;5031374;28;20021;-44
2022/08/21 07:52:49;;;;;;;1.25;0.98;;;;;;;23.60;46.18;101562.25;4985465;28;20053;-48
2022/08/21 07:55:17;;;;;;;2.22;0.90;;;;;;;23.61;46.05;101570.19;5002365;28;20048;-49
2022/08/21 07:57:43;;;;;;;1.63;0.90;;;;;;;23.63;46.15;101560.00;5002950;28;20333;-51
2022/08/21 08:00:12;;;;;;;2.40;1.00;;;;;;;23.66;45.91;101562.41;5020019;28;20312;-50
2022/08/21 08:02:37;;;;;;;4.05;1.25;;;;;;;23.67;46.01;101563.25;5003024;28;20119;-45
2022/08/21 08:05:04;;;;;;;1.65;0.70;;;;;;;23.71;45.99;101564.56;4985537;28;20088;-46
2022/08/21 08:07:30;;;;;;;1.75;0.90;;;;;;;23.73;46.34;101558.94;4986379;28;20512;-44
2022/08/21 08:09:55;;;;;;;1.02;0.68;;;;;;;23.74;45.92;101563.31;5021449;28;20087;-46
2022/08/21 08:12:20;;;;;;;1.30;0.85;;;;;;;23.75;45.89;101560.44;5001975;28;20041;-49
2022/08/21 08:14:46;;;;;;;1.35;0.60;;;;;;;23.74;45.59;101564.16;5005125;28;20052;-53
2022/08/21 08:17:13;;;;;;;1.50;0.57;;;;;;;23.78;45.57;101565.47;5000885;28;20045;-43
2022/08/21 08:19:38;;;;;;;3.10;1.15;;;;;;;23.80;45.63;101560.72;5021219;28;20029;-48
2022/08/21 08:22:13;;;;;;;1.23;0.60;;;;;;;23.82;45.61;101557.81;5002811;28;20060;-48
2022/08/21 08:24:38;;;;;;;1.08;0.73;;;;;;;23.68;45.73;101535.06;5021435;28;20117;-40
2022/08/21 08:27:03;;;;;;;1.20;0.60;;;;;;;23.83;45.56;101559.50;4982692;28;20121;-39
2022/08/21 08:29:30;;;;;;;0.90;0.50;;;;;;;23.69;45.42;101531.31;5019307;28;20025;-39
2022/08/21 08:31:56;;;;;;;1.20;0.90;;;;;;;23.89;45.49;101554.19;4986531;28;20029;-39
2022/08/21 08:34:22;;;;;;;1.20;0.60;;;;;;;23.82;45.20;101527.94;5003033;28;20032;-40
2022/08/21 08:36:48;;;;;;;2.15;0.95;;;;;;;24.01;45.14;101551.84;5016434;28;20036;-43
2022/08/21 08:39:13;;;;;;;2.17;0.60;;;;;;;24.11;44.90;101557.00;5002918;28;20037;-45
2022/08/21 08:41:39;;;;;;;2.58;0.60;;;;;;;24.11;44.89;101555.13;5002367;28;20045;-46
2022/08/21 08:44:05;;;;;;;1.52;0.60;;;;;;;24.14;44.51;101562.06;5002812;28;20105;-42
2022/08/21 08:46:47;;;;;;;1.95;0.77;;;;;;;24.16;44.42;101554.56;5000340;28;20101;-46
2022/08/21 08:49:23;;;;;;;2.05;0.85;;;;;;;24.13;44.34;101549.50;5020389;28;20029;-46
2022/08/21 08:51:52;;;;;;;1.98;0.77;;;;;;;24.11;44.18;101548.84;5020775;28;20029;-45
2022/08/21 08:54:26;;;;;;;2.45;0.60;;;;;;;23.98;44.51;101516.06;5002353;28;20050;-42
2022/08/21 08:56:52;;;;;;;3.10;0.80;;;;;;;24.10;44.50;101550.72;5000751;28;20022;-42
2022/08/21 08:59:27;;;;;;;2.22;0.80;;;;;;;23.99;44.36;101523.19;5003073;28;20064;-46
2022/08/21 09:01:53;;;;;;;1.27;0.50;;;;;;;24.11;44.56;101549.69;5002406;28;20053;-51
2022/08/21 09:04:23;;;;;;;3.50;0.98;;;;;;;24.09;44.72;101540.91;5003032;28;20088;-48
2022/08/21 09:07:04;;;;;;;1.10;0.50;;;;;;;24.12;44.73;101542.38;5017384;28;20034;-50
2022/08/21 09:09:39;;;;;;;1.17;0.70;;;;;;;24.14;45.03;101545.75;5019779;28;20512;-45
2022/08/21 09:12:10;;;;;;;2.28;0.70;;;;;;;24.09;45.03;101540.91;5002253;28;20607;-44
2022/08/21 09:14:54;;;;;;;1.80;0.73;;;;;;;24.16;44.83;101551.84;5020154;28;20034;-39
2022/08/21 09:17:40;;;;;;;1.30;0.85;;;;;;;24.17;44.92;101548.06;5017716;28;20034;-40
2022/08/21 09:20:43;;;;;;;1.67;0.73;;;;;;;24.17;44.94;101540.78;4985194;28;20044;-39
2022/08/21 09:23:24;;;;;;;2.90;0.98;;;;;;;24.03;45.24;101519.91;5001262;28;21429;-40
2022/08/21 09:26:19;;;;;;;3.72;0.90;;;;;;;24.19;45.23;101546.88;4999630;28;20045;-43
2022/08/21 09:28:47;;;;;;;2.20;0.68;;;;;;;24.16;45.21;101541.81;4991096;28;20041;-42
2022/08/21 09:31:19;;;;;;;2.38;0.65;;;;;;;24.20;45.36;101553.16;5002522;28;20033;-39
2022/08/21 09:33:45;;;;;;;2.97;0.60;;;;;;;24.19;45.35;101538.72;5003046;28;20048;-41
2022/08/21 09:36:10;;;;;;;1.63;0.73;;;;;;;24.22;45.35;101548.38;5020448;28;20638;-39
2022/08/21 09:38:37;;;;;;;1.63;0.60;;;;;;;24.25;45.32;101542.53;5004254;28;20037;-40
2022/08/21 09:41:08;;;;;;;2.13;0.88;;;;;;;24.27;45.14;101537.78;4989584;28;20041;-41
2022/08/21 09:43:34;;;;;;;3.47;0.80;;;;;;;24.31;45.42;101540.97;5005471;28;20033;-41
2022/08/21 09:46:19;;;;;;;1.15;0.60;;;;;;;24.33;45.34;101534.28;5003103;28;20439;-41
2022/08/21 09:48:48;;;;;;;1.17;0.43;;;;;;;24.34;45.26;101540.56;5005596;28;20122;-38
2022/08/21 09:51:19;;;;;;;4.68;0.82;;;;;;;24.32;45.40;101524.47;4989289;28;20856;-39
2022/08/21 09:53:52;;;;;;;2.00;0.80;;;;;;;24.42;45.37;101537.78;4989846;28;20052;-39
2022/08/21 09:59:17;;;;;;;1.92;0.70;;;;;;;24.48;45.27;101547.91;5022904;28;20068;-39
2022/08/21 10:01:49;;;;;;;1.40;0.60;;;;;;;24.37;45.55;101523.88;5006023;28;20037;-42
2022/08/21 10:04:20;;;;;;;1.55;0.60;;;;;;;24.53;45.21;101539.19;5005763;28;20029;-39
2022/08/21 10:06:45;;;;;;;1.50;0.60;;;;;;;24.54;45.24;101538.97;5019732;28;20329;-40
2022/08/21 10:09:13;;;;;;;2.10;0.65;;;;;;;24.41;45.11;101520.63;5023374;28;20211;-40
2022/08/21 10:11:40;;;;;;;1.33;0.63;;;;;;;24.57;45.34;101540.47;5005159;28;20045;-39
2022/08/21 10:14:26;;;;;;;2.88;0.60;;;;;;;24.56;45.03;101538.81;4987908;28;20474;-39
2022/08/21 10:17:29;;;;;;;1.80;0.73;;;;;;;24.54;45.36;101532.69;5018849;28;20041;-42
2022/08/21 10:20:11;;;;;;;2.05;0.88;;;;;;;24.54;45.14;101535.41;5022302;28;20072;-40
2022/08/21 10:22:59;;;;;;;1.35;0.60;;;;;;;24.40;45.35;101502.66;5023772;28;20036;-40
2022/08/21 10:25:31;;;;;;;2.50;0.60;;;;;;;24.55;45.25;101524.38;5000519;28;20030;-40
2022/08/21 10:28:22;;;;;;;2.22;0.80;;;;;;;24.41;45.18;101508.91;5004469;28;20037;-40
2022/08/21 10:31:12;;;;;;;0.98;0.57;;;;;;;24.59;45.40;101527.53;5022983;28;20037;-39
2022/08/21 10:34:05;;;;;;;1.70;0.60;;;;;;;24.43;45.13;101496.84;5023281;28;20037;-39
2022/08/21 10:36:40;;;;;;;1.88;0.50;;;;;;;24.38;44.97;101490.25;5018488;28;20066;-41
2022/08/21 10:39:25;;;;;;;1.48;0.60;;;;;;;24.60;45.24;101521.91;5004122;28;20066;-40
2022/08/21 10:41:59;;;;;;;1.58;0.55;;;;;;;24.60;45.11;101526.53;4988952;28;20036;-40
2022/08/21 10:45:09;;;;;;;1.77;0.50;;;;;;;24.61;45.16;101528.19;5003601;28;20168;-39
2022/08/21 10:47:46;;;;;;;1.92;0.50;;;;;;;24.66;45.30;101521.13;4949058;29;20330;-41
2022/08/21 10:50:31;;;;;;;1.40;0.55;;;;;;;24.81;45.16;101526.53;4934229;29;20622;-42
2022/08/21 10:53:15;;;;;;;1.73;0.52;;;;;;;25.02;44.99;101517.53;4951297;29;20053;-45
2022/08/21 10:55:44;;;;;;;1.77;0.80;;;;;;;25.20;44.76;101525.28;4931901;29;20150;-41
2022/08/21 10:58:14;;;;;;;2.28;0.60;;;;;;;25.32;44.66;101531.88;4934291;29;20082;-47
2022/08/21 11:00:49;;;;;;;2.03;0.73;;;;;;;25.42;44.33;101528.81;4935102;29;20058;-51
2022/08/21 11:03:24;;;;;;;1.95;0.52;;;;;;;25.59;44.11;101526.63;4950398;29;20038;-45
2022/08/21 11:05:55;;;;;;;2.28;0.68;;;;;;;25.72;43.86;101525.88;4947904;29;20142;-45
2022/08/21 11:08:33;;;;;;;2.72;0.68;;;;;;;25.76;43.67;101528.00;4951405;29;20046;-44
2022/08/21 11:11:03;;;;;;;;;;;;;;;25.75;43.57;101522.78;4951697;29;20110;-49
2022/08/21 11:13:33;;;;;;;4.32;0.95;;;;;;;25.81;43.47;101519.28;4934575;29;19969;-43
2022/08/21 11:16:04;;;;;;;1.67;0.80;;;;;;;25.83;43.50;101530.81;4947147;29;20035;-45
2022/08/21 11:18:42;;;;;;;2.30;0.95;;;;;;;25.72;43.10;101507.66;4934661;29;20679;-40
2022/08/21 11:21:37;;;;;;;3.17;0.77;;;;;;;25.74;43.32;101515.63;4950825;29;20078;-42
2022/08/21 11:24:18;;;;;;;1.30;0.70;;;;;;;25.71;43.20;101511.44;4944068;28;20145;-40
2022/08/21 11:26:51;;;;;;;1.13;0.70;;;;;;;25.66;43.26;101508.47;5016777;28;20040;-41
2022/08/21 11:29:28;;;;;;;1.55;0.80;;;;;;;25.75;43.25;101517.31;5004129;28;20036;-42
2022/08/21 11:32:17;;;;;;;1.88;0.60;;;;;;;25.72;43.25;101525.88;5003858;28;20025;-41
2022/08/21 11:34:45;;;;;;;2.80;1.00;;;;;;;25.66;43.23;101527.53;5020864;28;20535;-43
2022/08/21 11:37:23;;;;;;;2.10;0.90;;;;;;;25.64;43.14;101518.69;5018336;28;20037;-44